KAFW/AFW METAR and TAF weather

Enter ICAO airport designator
Station Type Date Time Source
KAFW METAR 2019/10/15 09:23 UTC NOAA

KAFW 150923Z 17007KT 3/4SM R16L/4000V5000FT -DZ BR OVC002 22/21 A2988 RMK AO2 P0000 T02220211 $


Station Type Date Time Source
KAFW Decoded METAR 2019/10/15 09:23 UTC NOAA

FORT WORTH ALLIANCE AIRPORT, TX, United States (KAFW) 32-59N 097-19W 233M
Oct 15, 2019 - 05:23 AM EDT / 2019.10.15 0923 UTC
Wind: from the S (170 degrees) at 8 MPH (7 KT) (direction variable):0
Visibility: 3/4 mile(s):0
Sky conditions: overcast
Weather: light drizzle; mist
Precipitation last hour: A trace
Temperature: 72.0 F (22.2 C)
Dew Point: 70.0 F (21.1 C)
Relative Humidity: 93%
Pressure (altimeter): 29.88 in. Hg (1011 hPa)
ob: KAFW 150923Z 17007KT 3/4SM R16L/4000V5000FT -DZ BR OVC002 22/21 A2988 RMK AO2 P0000 T02220211
cycle: 9

Station Type Date Time Source
KAFW TAF 2019/10/15 09:12 UTC NOAA

TAF
AMD KAFW 150908Z 1509/1606 15009KT 1SM BR OVC002
FM151200 19009KT P6SM BKN006
FM151400 19009KT P6SM SCT006 BKN012
FM151500 23011KT P6SM SCT035 BKN080
FM152100 23012KT P6SM VCTS SCT050CB BKN200
FM160000 31015G25KT P6SM SCT025 BKN035

Example: see airport list